createdAt,value
2022-12-29T00:00:13.592Z,88.50
2022-12-29T00:02:41.215Z,88.45
2022-12-29T00:05:10.951Z,89.12
2022-12-29T00:07:40.569Z,88.58
2022-12-29T00:10:08.891Z,89.02
2022-12-29T00:12:50.302Z,89.37
2022-12-29T00:15:35.304Z,89.16
2022-12-29T00:18:04.066Z,88.23
2022-12-29T00:20:52.458Z,89.15
2022-12-29T00:23:37.786Z,88.93
2022-12-29T00:26:23.270Z,89.51
2022-12-29T00:29:09.999Z,89.58
2022-12-29T00:31:55.376Z,89.27
2022-12-29T00:34:40.522Z,88.73
2022-12-29T00:37:09.354Z,89.07
2022-12-29T00:39:54.428Z,89.36
2022-12-29T00:42:39.581Z,89.70
2022-12-29T00:45:07.888Z,89.63
2022-12-29T00:47:35.359Z,89.81
2022-12-29T00:50:01.866Z,88.89
2022-12-29T00:52:30.692Z,89.00
2022-12-29T00:54:58.034Z,89.41
2022-12-29T00:57:25.374Z,89.66
2022-12-29T00:59:52.828Z,89.79
2022-12-29T01:02:20.415Z,89.37
2022-12-29T01:04:47.985Z,89.64
2022-12-29T01:07:16.774Z,89.86
2022-12-29T01:10:04.922Z,89.95
2022-12-29T01:12:45.855Z,89.63
2022-12-29T01:15:14.568Z,88.96
2022-12-29T01:17:42.032Z,89.38
2022-12-29T01:20:10.926Z,89.50
2022-12-29T01:22:38.633Z,89.38
2022-12-29T01:25:08.827Z,88.95
2022-12-29T01:27:36.760Z,89.48
2022-12-29T01:30:04.691Z,89.16
2022-12-29T01:32:32.246Z,89.24
2022-12-29T01:35:00.304Z,89.63
2022-12-29T01:37:27.785Z,89.36
2022-12-29T01:39:55.252Z,89.66
2022-12-29T01:42:26.894Z,89.71
2022-12-29T01:44:57.098Z,89.18
2022-12-29T01:47:30.885Z,89.15
2022-12-29T01:50:04.267Z,89.02
2022-12-29T01:52:35.951Z,89.48
2022-12-29T01:55:05.547Z,89.63
2022-12-29T01:57:38.962Z,89.15
2022-12-29T02:00:10.064Z,88.39
2022-12-29T02:02:38.864Z,89.36
2022-12-29T02:05:09.139Z,89.24
2022-12-29T02:07:37.095Z,88.18
2022-12-29T02:10:05.355Z,88.72
2022-12-29T02:12:34.270Z,88.30
2022-12-29T02:15:03.806Z,88.71
2022-12-29T02:17:46.783Z,87.46
2022-12-29T02:20:35.241Z,88.12
2022-12-29T02:23:26.558Z,89.13
2022-12-29T02:26:30.078Z,89.19
2022-12-29T02:29:22.798Z,88.21
2022-12-29T02:31:58.453Z,89.42
2022-12-29T02:34:32.850Z,87.71
2022-12-29T02:37:07.335Z,89.02
2022-12-29T02:39:39.960Z,87.78
2022-12-29T02:42:15.574Z,87.28
2022-12-29T02:44:54.712Z,87.71
2022-12-29T02:47:31.401Z,87.24
2022-12-29T02:50:04.054Z,88.56
2022-12-29T02:52:36.455Z,88.84
2022-12-29T02:55:03.198Z,87.75
2022-12-29T02:57:33.631Z,88.41
2022-12-29T03:00:05.947Z,88.59
2022-12-29T03:02:48.894Z,89.11
2022-12-29T03:05:29.657Z,89.21
2022-12-29T03:08:06.698Z,89.53
2022-12-29T03:10:43.158Z,89.02
2022-12-29T03:13:38.809Z,89.50
2022-12-29T03:16:13.149Z,89.67
2022-12-29T03:18:51.654Z,88.85
2022-12-29T03:21:47.388Z,88.40
2022-12-29T03:24:15.867Z,88.92
2022-12-29T03:26:46.885Z,89.07
2022-12-29T03:29:15.788Z,88.83
2022-12-29T03:31:44.668Z,88.27
2022-12-29T03:34:15.293Z,88.84
2022-12-29T03:36:49.419Z,89.43
2022-12-29T03:39:17.055Z,89.07
2022-12-29T03:41:47.151Z,89.04
2022-12-29T03:44:15.584Z,89.58
2022-12-29T03:46:43.055Z,89.48
2022-12-29T03:49:10.566Z,89.60
2022-12-29T03:51:39.415Z,89.41
2022-12-29T03:54:07.072Z,89.31
2022-12-29T03:56:34.891Z,89.01
2022-12-29T03:59:02.336Z,88.27
2022-12-29T04:01:29.884Z,88.85
2022-12-29T04:03:57.437Z,89.08
2022-12-29T04:06:25.467Z,87.69
2022-12-29T04:08:54.291Z,89.01
2022-12-29T04:11:21.738Z,89.29
2022-12-29T04:13:49.264Z,89.35
2022-12-29T04:16:16.853Z,89.15
2022-12-29T04:18:44.595Z,88.95
2022-12-29T04:21:12.093Z,88.87
2022-12-29T04:23:40.214Z,89.32
2022-12-29T04:26:10.181Z,88.42
2022-12-29T04:28:38.251Z,89.00
2022-12-29T04:31:06.987Z,89.00
2022-12-29T04:33:35.035Z,88.89
2022-12-29T04:36:02.588Z,88.86
2022-12-29T04:38:30.323Z,88.66
2022-12-29T04:41:01.056Z,89.56
2022-12-29T04:43:29.986Z,89.36
2022-12-29T04:45:57.334Z,88.90
2022-12-29T04:48:24.996Z,88.75
2022-12-29T04:50:52.498Z,88.68
2022-12-29T04:53:20.255Z,89.12
2022-12-29T04:55:51.214Z,88.63
2022-12-29T04:58:22.540Z,89.07
2022-12-29T05:00:51.864Z,88.80
2022-12-29T05:03:21.805Z,88.93
2022-12-29T05:05:49.329Z,89.34
2022-12-29T05:08:16.851Z,89.33
2022-12-29T05:10:47.364Z,88.61
2022-12-29T05:13:15.167Z,88.69
2022-12-29T05:15:42.833Z,87.60
2022-12-29T05:18:11.669Z,88.98
2022-12-29T05:20:38.957Z,89.25
2022-12-29T05:23:06.396Z,88.55
2022-12-29T05:25:33.888Z,89.17
2022-12-29T05:28:01.354Z,88.46
2022-12-29T05:30:28.824Z,88.55
2022-12-29T05:32:56.284Z,88.98
2022-12-29T05:35:25.153Z,88.87
2022-12-29T05:37:52.493Z,88.63
2022-12-29T05:40:19.880Z,88.63
2022-12-29T05:42:47.355Z,88.68
2022-12-29T05:45:14.846Z,88.50
2022-12-29T05:47:42.289Z,88.80
2022-12-29T05:50:10.187Z,88.86
2022-12-29T05:52:39.001Z,88.57
2022-12-29T05:55:07.642Z,88.89
2022-12-29T05:57:35.143Z,89.21
2022-12-29T06:00:02.724Z,89.17
2022-12-29T06:02:30.353Z,88.71
2022-12-29T06:04:57.923Z,88.38
2022-12-29T06:07:25.581Z,88.82
2022-12-29T06:09:54.410Z,88.09
2022-12-29T06:12:24.817Z,88.49
2022-12-29T06:14:52.605Z,88.66
2022-12-29T06:17:20.067Z,87.91
2022-12-29T06:19:47.518Z,87.68
2022-12-29T06:22:15.012Z,87.75
2022-12-29T06:24:42.604Z,87.45
2022-12-29T06:27:11.399Z,87.19
2022-12-29T06:29:40.887Z,87.66
2022-12-29T06:32:09.575Z,86.35
2022-12-29T06:34:37.106Z,87.67
2022-12-29T06:37:04.589Z,87.24
2022-12-29T06:39:32.115Z,86.93
2022-12-29T06:41:59.598Z,86.27
2022-12-29T06:44:28.429Z,86.63
2022-12-29T06:46:55.791Z,86.64
2022-12-29T06:49:23.248Z,86.48
2022-12-29T06:51:50.675Z,86.28
2022-12-29T06:54:18.114Z,87.26
2022-12-29T06:56:45.553Z,86.41
2022-12-29T06:59:13.124Z,86.65
2022-12-29T07:01:42.054Z,85.51
2022-12-29T07:04:09.569Z,87.21
2022-12-29T07:06:37.051Z,86.82
2022-12-29T07:09:04.509Z,86.63
2022-12-29T07:11:31.923Z,86.15
2022-12-29T07:14:04.714Z,87.08
2022-12-29T07:16:32.297Z,86.77
2022-12-29T07:19:01.123Z,86.77
2022-12-29T07:21:28.609Z,85.96
2022-12-29T07:23:56.103Z,86.66
2022-12-29T07:26:23.651Z,86.06
2022-12-29T07:28:51.206Z,86.59
2022-12-29T07:31:20.657Z,86.55
2022-12-29T07:33:49.475Z,86.16
2022-12-29T07:36:19.120Z,85.90
2022-12-29T07:38:46.598Z,84.32
2022-12-29T07:41:14.041Z,85.99
2022-12-29T07:43:41.674Z,85.07
2022-12-29T07:46:14.559Z,83.38
2022-12-29T07:48:57.313Z,84.88
2022-12-29T07:51:26.092Z,85.71
2022-12-29T07:53:53.540Z,85.24
2022-12-29T07:56:20.991Z,85.24
2022-12-29T07:58:48.439Z,82.97
2022-12-29T08:01:15.969Z,83.30
2022-12-29T08:03:43.504Z,84.60
2022-12-29T08:06:11.597Z,84.87
2022-12-29T08:08:40.465Z,84.21
2022-12-29T08:11:07.845Z,84.97
2022-12-29T08:13:35.176Z,85.10
2022-12-29T08:16:02.549Z,85.04
2022-12-29T08:18:29.896Z,84.14
2022-12-29T08:20:57.236Z,84.49
2022-12-29T08:23:24.622Z,84.75
2022-12-29T08:26:00.003Z,84.44
2022-12-29T08:28:27.831Z,83.78
2022-12-29T08:30:55.752Z,83.81
2022-12-29T08:33:23.202Z,83.92
2022-12-29T08:35:51.410Z,84.56
2022-12-29T08:38:19.422Z,83.83
2022-12-29T08:40:46.891Z,83.66
2022-12-29T08:43:18.745Z,83.72
2022-12-29T08:45:46.294Z,83.72
2022-12-29T08:48:13.757Z,84.66
2022-12-29T08:50:45.150Z,83.79
2022-12-29T08:53:12.621Z,83.23
2022-12-29T08:55:40.101Z,84.15
2022-12-29T08:58:07.635Z,84.58
2022-12-29T09:00:36.559Z,84.66
2022-12-29T09:03:04.145Z,82.01
2022-12-29T09:05:31.634Z,84.07
2022-12-29T09:07:59.081Z,84.83
2022-12-29T09:10:26.713Z,84.74
2022-12-29T09:12:54.359Z,83.54
2022-12-29T09:15:21.793Z,84.25
2022-12-29T09:17:50.607Z,84.65
2022-12-29T09:20:18.941Z,84.67
2022-12-29T09:22:47.448Z,84.75
2022-12-29T09:25:15.798Z,84.13
2022-12-29T09:27:43.529Z,84.44
2022-12-29T09:30:15.301Z,84.49
2022-12-29T09:32:45.435Z,84.60
2022-12-29T09:35:15.181Z,84.24
2022-12-29T09:37:43.008Z,83.40
2022-12-29T09:40:25.894Z,82.53
2022-12-29T09:43:11.802Z,84.36
2022-12-29T09:45:43.972Z,84.35
2022-12-29T09:48:17.588Z,84.85
2022-12-29T09:50:52.010Z,84.66
2022-12-29T09:53:23.504Z,85.31
2022-12-29T09:55:54.966Z,84.67
2022-12-29T09:58:30.088Z,84.23
2022-12-29T10:01:03.360Z,83.76
2022-12-29T10:03:45.096Z,84.64
2022-12-29T10:06:19.329Z,82.94
2022-12-29T10:08:54.719Z,84.65
2022-12-29T10:11:35.491Z,85.22
2022-12-29T10:14:19.704Z,84.94
2022-12-29T10:16:58.773Z,85.09
2022-12-29T10:19:48.231Z,84.38
2022-12-29T10:22:28.038Z,83.95
2022-12-29T10:24:57.444Z,84.44
2022-12-29T10:27:25.935Z,84.79
2022-12-29T10:29:58.053Z,84.79
2022-12-29T10:32:34.002Z,85.14
2022-12-29T10:35:11.977Z,85.57
2022-12-29T10:37:47.150Z,84.44
2022-12-29T10:40:21.750Z,84.71
2022-12-29T10:42:56.704Z,85.60
2022-12-29T10:45:26.097Z,85.20
2022-12-29T10:47:57.755Z,84.80
2022-12-29T10:50:27.553Z,85.06
2022-12-29T10:52:58.177Z,84.77
2022-12-29T10:55:32.021Z,84.46
2022-12-29T10:58:05.579Z,82.01
2022-12-29T11:00:34.204Z,83.21
2022-12-29T11:03:19.456Z,84.12
2022-12-29T11:05:51.344Z,84.53
2022-12-29T11:08:23.722Z,84.65
2022-12-29T11:11:01.109Z,84.57
2022-12-29T11:13:36.544Z,83.06
2022-12-29T11:16:06.842Z,83.93
2022-12-29T11:18:37.925Z,84.46
2022-12-29T11:21:07.465Z,84.18
2022-12-29T11:23:38.477Z,84.72
2022-12-29T11:26:18.764Z,83.94
2022-12-29T11:28:48.002Z,82.72
2022-12-29T11:31:19.209Z,84.70
2022-12-29T11:33:47.862Z,84.30
2022-12-29T11:36:19.095Z,83.90
2022-12-29T11:38:51.980Z,85.11
2022-12-29T11:41:25.854Z,85.54
2022-12-29T11:43:54.861Z,85.72
2022-12-29T11:46:26.276Z,85.28
2022-12-29T11:48:53.916Z,85.40
2022-12-29T11:51:27.711Z,85.17
2022-12-29T11:54:00.235Z,83.86
2022-12-29T11:56:40.741Z,85.51
2022-12-29T11:59:39.741Z,85.33
2022-12-29T12:02:40.561Z,86.44
2022-12-29T12:05:21.242Z,85.93
2022-12-29T12:07:54.039Z,84.98
2022-12-29T12:10:30.064Z,84.26
2022-12-29T12:13:05.397Z,85.66
2022-12-29T12:15:45.325Z,84.88
2022-12-29T12:18:19.443Z,83.83
2022-12-29T12:20:50.013Z,84.91
2022-12-29T12:23:29.261Z,84.29
2022-12-29T12:26:04.472Z,85.51
2022-12-29T12:28:39.818Z,84.99
2022-12-29T12:31:17.509Z,86.03
2022-12-29T12:33:49.823Z,84.48
2022-12-29T12:36:29.922Z,87.05
2022-12-29T12:39:04.115Z,87.12
2022-12-29T12:41:44.910Z,88.50
2022-12-29T12:44:20.689Z,87.63
2022-12-29T12:47:08.601Z,87.52
2022-12-29T12:49:37.901Z,88.05
2022-12-29T12:52:15.561Z,89.07
2022-12-29T12:54:58.495Z,89.64
2022-12-29T12:57:40.978Z,88.84
2022-12-29T13:00:14.598Z,89.40
2022-12-29T13:02:57.152Z,88.88
2022-12-29T13:05:37.842Z,88.84
2022-12-29T13:08:25.212Z,89.44
2022-12-29T13:10:56.019Z,90.16
2022-12-29T13:13:51.821Z,89.59
2022-12-29T13:16:33.641Z,89.78
2022-12-29T13:19:06.818Z,89.24
2022-12-29T13:21:53.678Z,90.58
2022-12-29T13:24:30.633Z,90.67
2022-12-29T13:27:05.893Z,91.02
2022-12-29T13:29:42.087Z,89.79
2022-12-29T13:32:24.153Z,90.56
2022-12-29T13:35:03.871Z,90.84
2022-12-29T13:37:35.893Z,90.41
2022-12-29T13:40:11.867Z,89.71
2022-12-29T13:42:41.638Z,90.55
2022-12-29T13:45:15.941Z,90.64
2022-12-29T13:47:48.130Z,90.87
2022-12-29T13:50:19.546Z,91.44
2022-12-29T13:52:54.659Z,91.05
2022-12-29T13:55:30.687Z,89.88
2022-12-29T13:58:05.082Z,90.79
2022-12-29T14:00:45.115Z,90.70
2022-12-29T14:03:34.496Z,89.56
2022-12-29T14:06:16.400Z,90.65
2022-12-29T14:08:45.012Z,90.44
2022-12-29T14:11:16.684Z,89.20
2022-12-29T14:13:47.071Z,88.78
2022-12-29T14:16:28.475Z,90.12
2022-12-29T14:18:59.318Z,89.22
2022-12-29T14:21:30.722Z,89.77
2022-12-29T14:24:42.384Z,89.50
2022-12-29T14:27:30.554Z,90.62
2022-12-29T14:29:58.082Z,90.18
2022-12-29T14:33:02.040Z,90.81
2022-12-29T14:35:43.488Z,91.10
2022-12-29T14:38:26.700Z,91.45
2022-12-29T14:41:21.345Z,91.62
2022-12-29T14:44:01.638Z,92.15
2022-12-29T14:46:44.884Z,91.95
2022-12-29T14:49:19.691Z,91.93
2022-12-29T14:51:48.248Z,92.49
2022-12-29T14:54:48.435Z,92.12
2022-12-29T14:57:23.579Z,92.55
2022-12-29T14:59:55.987Z,92.60
2022-12-29T15:02:26.849Z,92.82
2022-12-29T15:05:00.139Z,92.94
2022-12-29T15:07:29.537Z,92.81
2022-12-29T15:10:02.163Z,92.76
2022-12-29T15:12:37.957Z,92.87
2022-12-29T15:15:19.959Z,93.06
2022-12-29T15:17:47.649Z,92.55
2022-12-29T15:20:25.643Z,92.66
2022-12-29T15:22:57.846Z,92.91
2022-12-29T15:25:27.214Z,93.05
2022-12-29T15:27:59.169Z,93.01
2022-12-29T15:30:26.711Z,92.85
2022-12-29T15:32:54.348Z,93.06
2022-12-29T15:35:28.217Z,93.59
2022-12-29T15:37:57.857Z,93.63
2022-12-29T15:40:28.185Z,93.16
2022-12-29T15:43:15.141Z,92.89
2022-12-29T15:45:42.880Z,93.64
2022-12-29T15:48:19.082Z,93.65
2022-12-29T15:50:47.796Z,93.78
2022-12-29T15:53:20.936Z,94.12
2022-12-29T15:55:48.711Z,94.17
2022-12-29T15:58:26.157Z,94.09
2022-12-29T16:00:56.051Z,94.19
2022-12-29T16:03:27.343Z,94.17
2022-12-29T16:06:08.627Z,93.88
2022-12-29T16:08:39.000Z,93.11
2022-12-29T16:11:20.239Z,94.02
2022-12-29T16:13:51.362Z,93.80
2022-12-29T16:16:22.758Z,94.35
2022-12-29T16:18:57.361Z,94.34
2022-12-29T16:21:28.485Z,94.21
2022-12-29T16:24:01.291Z,94.60
2022-12-29T16:26:28.888Z,94.41
2022-12-29T16:28:59.969Z,94.81
2022-12-29T16:31:35.849Z,94.49
2022-12-29T16:34:13.961Z,94.22
2022-12-29T16:36:53.769Z,95.08
2022-12-29T16:39:28.002Z,94.66
2022-12-29T16:41:56.463Z,95.02
2022-12-29T16:44:29.547Z,95.37
2022-12-29T16:47:05.193Z,94.81
2022-12-29T16:49:35.012Z,95.11
2022-12-29T16:52:03.444Z,95.07
2022-12-29T16:54:34.794Z,95.03
2022-12-29T16:57:02.859Z,95.41
2022-12-29T16:59:36.158Z,95.09
2022-12-29T17:02:09.197Z,95.41
2022-12-29T17:04:36.757Z,94.91
2022-12-29T17:07:04.558Z,94.99
2022-12-29T17:09:32.475Z,96.09
2022-12-29T17:12:10.952Z,99.64
2022-12-29T17:14:46.136Z,100.00
2022-12-29T17:17:19.101Z,100.00
2022-12-29T17:19:50.270Z,100.00
2022-12-29T17:22:20.672Z,100.00
2022-12-29T17:24:50.881Z,100.00
2022-12-29T17:27:30.420Z,100.00
2022-12-29T17:30:03.224Z,100.00
2022-12-29T17:32:31.163Z,100.00
2022-12-29T17:34:58.678Z,100.00
2022-12-29T17:37:32.393Z,100.00
2022-12-29T17:39:59.847Z,100.00
2022-12-29T17:42:27.333Z,100.00
2022-12-29T17:44:54.771Z,100.00
2022-12-29T17:47:23.578Z,100.00
2022-12-29T17:49:51.143Z,100.00
2022-12-29T17:52:18.747Z,100.00
2022-12-29T17:54:50.601Z,100.00
2022-12-29T17:57:19.609Z,100.00
2022-12-29T17:59:47.167Z,100.00
2022-12-29T18:02:37.039Z,100.00
2022-12-29T18:05:07.235Z,100.00
2022-12-29T18:07:36.215Z,100.00
2022-12-29T18:10:04.749Z,100.00
2022-12-29T18:12:36.823Z,100.00
2022-12-29T18:15:05.341Z,100.00
2022-12-29T18:17:32.873Z,100.00
2022-12-29T18:20:01.785Z,100.00
2022-12-29T18:22:30.121Z,100.00
2022-12-29T18:24:57.656Z,100.00
2022-12-29T18:27:25.128Z,100.00
2022-12-29T18:29:52.624Z,100.00
2022-12-29T18:32:21.185Z,100.00
2022-12-29T18:34:49.228Z,100.00
2022-12-29T18:37:18.071Z,100.00
2022-12-29T18:39:45.530Z,100.00
2022-12-29T18:42:17.955Z,100.00
2022-12-29T18:44:45.545Z,100.00
2022-12-29T18:47:13.079Z,100.00
2022-12-29T18:49:43.308Z,100.00
2022-12-29T18:52:13.976Z,100.00
2022-12-29T18:54:42.795Z,100.00
2022-12-29T18:57:10.288Z,100.00
2022-12-29T18:59:37.825Z,100.00
2022-12-29T19:02:05.519Z,100.00
2022-12-29T19:04:32.992Z,100.00
2022-12-29T19:07:00.483Z,100.00
2022-12-29T19:09:28.071Z,100.00
2022-12-29T19:11:56.868Z,100.00
2022-12-29T19:14:24.231Z,100.00
2022-12-29T19:16:52.140Z,100.00
2022-12-29T19:19:19.600Z,100.00
2022-12-29T19:21:47.051Z,100.00
2022-12-29T19:24:14.748Z,100.00
2022-12-29T19:26:43.047Z,100.00
2022-12-29T19:29:15.450Z,100.00
2022-12-29T19:31:43.354Z,100.00
2022-12-29T19:34:12.715Z,100.00
2022-12-29T19:36:40.214Z,100.00
2022-12-29T19:39:07.749Z,100.00
2022-12-29T19:41:35.295Z,100.00
2022-12-29T19:44:02.812Z,100.00
2022-12-29T19:46:31.790Z,100.00
2022-12-29T19:49:00.590Z,100.00
2022-12-29T19:51:28.491Z,100.00
2022-12-29T19:53:58.349Z,100.00
2022-12-29T19:56:25.846Z,100.00
2022-12-29T19:58:53.302Z,100.00
2022-12-29T20:01:23.243Z,100.00
2022-12-29T20:03:54.724Z,100.00
2022-12-29T20:06:22.372Z,100.00
2022-12-29T20:08:49.875Z,100.00
2022-12-29T20:11:19.119Z,100.00
2022-12-29T20:13:47.072Z,100.00
2022-12-29T20:16:16.418Z,100.00
2022-12-29T20:18:44.715Z,100.00
2022-12-29T20:21:17.625Z,100.00
2022-12-29T20:23:46.194Z,100.00
2022-12-29T20:26:16.335Z,100.00
2022-12-29T20:28:44.045Z,100.00
2022-12-29T20:31:18.967Z,100.00
2022-12-29T20:33:46.690Z,100.00
2022-12-29T20:36:18.132Z,100.00
2022-12-29T20:38:46.654Z,100.00
2022-12-29T20:41:14.754Z,100.00
2022-12-29T20:43:43.017Z,100.00
2022-12-29T20:46:11.078Z,100.00
2022-12-29T20:48:39.049Z,100.00
2022-12-29T20:51:06.773Z,100.00
2022-12-29T20:53:37.321Z,100.00
2022-12-29T20:56:07.077Z,100.00
2022-12-29T20:58:59.959Z,100.00
2022-12-29T21:01:26.281Z,100.00
2022-12-29T21:03:54.429Z,100.00
2022-12-29T21:06:22.263Z,100.00
2022-12-29T21:08:51.283Z,100.00
2022-12-29T21:11:19.331Z,100.00
2022-12-29T21:13:46.773Z,100.00
2022-12-29T21:16:15.254Z,100.00
2022-12-29T21:18:43.098Z,100.00
2022-12-29T21:21:16.978Z,100.00
2022-12-29T21:23:44.951Z,100.00
2022-12-29T21:26:16.081Z,100.00
2022-12-29T21:28:45.995Z,100.00
2022-12-29T21:31:24.032Z,100.00
2022-12-29T21:33:51.977Z,100.00
2022-12-29T21:36:19.628Z,100.00
2022-12-29T21:38:47.326Z,100.00
2022-12-29T21:41:17.309Z,100.00
2022-12-29T21:44:07.605Z,100.00
2022-12-29T21:46:36.028Z,100.00
2022-12-29T21:49:04.258Z,100.00
2022-12-29T21:51:49.353Z,100.00
2022-12-29T21:54:35.683Z,100.00
2022-12-29T21:57:05.076Z,100.00
2022-12-29T21:59:50.110Z,100.00
2022-12-29T22:02:40.813Z,100.00
2022-12-29T22:05:28.286Z,100.00
2022-12-29T22:08:13.640Z,100.00
2022-12-29T22:11:00.473Z,100.00
2022-12-29T22:13:32.191Z,100.00
2022-12-29T22:15:59.709Z,100.00
2022-12-29T22:18:27.256Z,100.00
2022-12-29T22:20:54.835Z,100.00
2022-12-29T22:23:22.502Z,100.00
2022-12-29T22:25:51.179Z,100.00
2022-12-29T22:28:18.597Z,100.00
2022-12-29T22:30:47.356Z,100.00
2022-12-29T22:33:14.833Z,100.00
2022-12-29T22:35:42.320Z,100.00
2022-12-29T22:38:09.856Z,100.00
2022-12-29T22:40:37.571Z,100.00
2022-12-29T22:43:11.073Z,100.00
2022-12-29T22:45:40.882Z,100.00
2022-12-29T22:48:09.802Z,100.00
2022-12-29T22:50:39.783Z,100.00
2022-12-29T22:53:07.279Z,100.00
2022-12-29T22:55:34.773Z,100.00
2022-12-29T22:58:03.495Z,100.00
2022-12-29T23:00:30.802Z,100.00
2022-12-29T23:02:58.345Z,100.00
2022-12-29T23:05:27.277Z,100.00
2022-12-29T23:07:54.587Z,100.00
2022-12-29T23:10:24.190Z,100.00
2022-12-29T23:12:54.357Z,100.00
2022-12-29T23:15:21.816Z,100.00
2022-12-29T23:17:49.453Z,100.00
2022-12-29T23:20:17.107Z,100.00
2022-12-29T23:22:45.919Z,100.00
2022-12-29T23:25:13.234Z,100.00
2022-12-29T23:27:43.727Z,100.00
2022-12-29T23:30:11.654Z,100.00
2022-12-29T23:32:39.185Z,100.00
2022-12-29T23:35:07.246Z,100.00
2022-12-29T23:37:34.712Z,100.00
2022-12-29T23:40:03.527Z,100.00
2022-12-29T23:42:30.850Z,100.00
2022-12-29T23:44:58.761Z,100.00
2022-12-29T23:47:26.253Z,100.00
2022-12-29T23:49:53.694Z,100.00
2022-12-29T23:52:22.690Z,100.00
2022-12-29T23:54:50.243Z,100.00
2022-12-29T23:57:19.077Z,100.00
2022-12-29T23:59:46.417Z,100.00
